Time;durP1;ratioP1;P1;durP2;ratioP2;P2;SDS_P1;SDS_P2;PMS_P1;PMS_P2;Temp;Humidity;BMP_temperature;BMP_pressure;BME280_temperature;BME280_humidity;BME280_pressure;Samples;Min_cycle;Max_cycle;Signal;HPM_P1;HPM_P2
2023/07/23 00:02:22;;;;;;;;;7.00;7.00;;;;;23.78;38.03;100660.65;109988;1254;21010;-35
2023/07/23 00:04:49;;;;;;;;;9.00;7.00;;;;;23.74;38.15;100657.04;109987;1262;20834;-35
2023/07/23 00:07:17;;;;;;;;;7.00;6.00;;;;;23.74;38.09;100661.20;109987;1267;18330;-35
2023/07/23 00:09:45;;;;;;;;;9.00;7.00;;;;;23.76;37.98;100663.02;109989;1253;18640;-35
2023/07/23 00:12:12;;;;;;;;;8.00;7.00;;;;;23.78;37.99;100659.52;109871;1260;22867;-35
2023/07/23 00:14:39;;;;;;;;;7.00;6.00;;;;;23.78;37.87;100656.77;110006;1267;18842;-36
2023/07/23 00:17:08;;;;;;;;;7.00;7.00;;;;;23.79;37.81;100662.39;109966;1254;19933;-36
2023/07/23 00:19:35;;;;;;;;;9.00;7.00;;;;;23.79;37.67;100663.66;109860;1268;159634;-36
2023/07/23 00:22:02;;;;;;;;;7.67;7.67;;;;;23.76;37.80;100665.70;109919;1268;18563;-35
2023/07/23 00:24:30;;;;;;;;;9.00;8.00;;;;;23.74;37.69;100666.01;109965;1267;18780;-36
2023/07/23 00:26:57;;;;;;;;;7.00;7.00;;;;;23.72;37.59;100657.50;109998;1251;20840;-36
2023/07/23 00:29:25;;;;;;;;;9.00;7.00;;;;;23.69;37.74;100649.18;109949;1254;19789;-35
2023/07/23 00:31:52;;;;;;;;;9.00;9.00;;;;;23.68;37.52;100640.33;110050;1267;20184;-35
2023/07/23 00:34:19;;;;;;;;;13.00;11.00;;;;;23.68;37.51;100635.13;110019;1267;19393;-35
2023/07/23 00:36:47;;;;;;;;;11.00;9.00;;;;;23.62;37.36;100631.80;109962;1254;19649;-35
2023/07/23 00:39:14;;;;;;;;;7.00;7.00;;;;;23.63;37.31;100632.02;109937;1254;21943;-35
2023/07/23 00:41:42;;;;;;;;;9.00;9.00;;;;;23.61;37.37;100628.88;110035;1267;19362;-35
2023/07/23 00:44:09;;;;;;;;;10.00;9.00;;;;;23.57;37.62;100626.83;110011;1267;18561;-36
2023/07/23 00:46:36;;;;;;;;;9.00;9.00;;;;;23.58;37.36;100621.14;109956;1267;18662;-36
2023/07/23 00:49:04;;;;;;;;;9.00;9.00;;;;;23.54;37.42;100623.85;109998;1256;20832;-36
2023/07/23 00:51:31;;;;;;;;;10.00;9.00;;;;;23.57;37.16;100627.34;110005;1267;19875;-34
2023/07/23 00:53:59;;;;;;;;;10.00;10.00;;;;;23.57;37.28;100625.96;109981;1253;21906;-35
2023/07/23 00:56:26;;;;;;;;;10.00;9.00;;;;;23.55;37.17;100618.45;109996;1268;20602;-35
2023/07/23 00:58:53;;;;;;;;;12.00;11.00;;;;;23.53;36.98;100620.45;109901;1261;19937;-35
2023/07/23 01:01:21;;;;;;;;;7.00;7.00;;;;;23.54;37.02;100616.05;109916;1267;19143;-34
2023/07/23 01:03:48;;;;;;;;;10.00;9.00;;;;;23.55;37.00;100615.27;109972;1267;21756;-34
2023/07/23 01:06:16;;;;;;;;;11.50;10.50;;;;;23.57;37.01;100619.13;110007;1253;19649;-34
2023/07/23 01:08:43;;;;;;;;;10.00;10.00;;;;;23.59;37.03;100621.90;109988;1254;20287;-35
2023/07/23 01:11:10;;;;;;;;;13.00;11.00;;;;;23.61;37.04;100629.79;109978;1253;22673;-36
2023/07/23 01:13:38;;;;;;;;;10.00;10.00;;;;;23.63;36.90;100634.20;110009;1267;18661;-35
2023/07/23 01:16:07;;;;;;;;;7.00;7.00;;;;;23.62;36.90;100634.70;109916;1254;20211;-35
2023/07/23 01:18:35;;;;;;;;;9.50;9.50;;;;;23.64;36.87;100625.27;109988;1254;20790;-35
2023/07/23 01:21:02;;;;;;;;;9.00;9.00;;;;;23.63;36.59;100618.02;109899;1268;22886;-35
2023/07/23 01:23:30;;;;;;;;;11.00;10.00;;;;;23.63;36.68;100611.56;109943;1267;18644;-35
2023/07/23 01:25:58;;;;;;;;;10.00;10.00;;;;;23.64;36.67;100610.67;109945;1252;19397;-35
2023/07/23 01:28:25;;;;;;;;;12.00;12.00;;;;;23.65;36.69;100611.65;109956;1267;18637;-35
2023/07/23 01:30:53;;;;;;;;;12.00;11.00;;;;;23.65;36.63;100607.44;109955;1253;20018;-35
2023/07/23 01:33:21;;;;;;;;;11.33;11.33;;;;;23.64;36.73;100608.05;110004;1259;20847;-35
2023/07/23 01:35:48;;;;;;;;;10.50;10.50;;;;;23.62;36.71;100605.06;109883;1251;19888;-35
2023/07/23 01:38:16;;;;;;;;;9.50;9.00;;;;;23.63;36.54;100598.00;109892;1254;21900;-36
2023/07/23 01:40:43;;;;;;;;;11.00;11.00;;;;;23.62;36.62;100593.42;109927;1267;19395;-35
2023/07/23 01:43:11;;;;;;;;;9.00;9.00;;;;;23.62;36.52;100593.09;109969;1251;18668;-35
2023/07/23 01:45:38;;;;;;;;;12.00;11.00;;;;;23.63;36.65;100591.16;109966;1267;18715;-35
2023/07/23 01:48:05;;;;;;;;;10.50;9.50;;;;;23.62;36.53;100586.53;109987;1261;20738;-35
2023/07/23 01:50:33;;;;;;;;;12.00;10.00;;;;;23.61;36.60;100583.87;109983;1252;20067;-35
2023/07/23 01:53:00;;;;;;;;;10.00;9.00;;;;;23.61;36.56;100583.59;109896;1267;18700;-34
2023/07/23 01:55:28;;;;;;;;;10.00;10.00;;;;;23.60;36.66;100581.46;109892;1254;22754;-35
2023/07/23 01:57:55;;;;;;;;;9.00;9.00;;;;;23.58;36.43;100578.70;109992;1267;18629;-35
2023/07/23 02:00:22;;;;;;;;;10.00;9.00;;;;;23.55;36.59;100577.05;110000;1267;18669;-35
2023/07/23 02:02:50;;;;;;;;;9.00;7.00;;;;;23.56;36.50;100581.08;109974;1268;22252;-35
2023/07/23 02:05:18;;;;;;;;;9.00;9.00;;;;;23.52;36.75;100582.58;109772;1259;19004;-36
2023/07/23 02:07:46;;;;;;;;;9.50;8.00;;;;;23.50;36.49;100588.50;109645;1252;20151;-35
2023/07/23 02:10:13;;;;;;;;;9.00;9.00;;;;;23.47;36.69;100586.41;109911;1254;20858;-35
2023/07/23 02:12:41;;;;;;;;;7.00;7.00;;;;;23.40;36.67;100583.39;109975;1254;22697;-36
2023/07/23 02:15:10;;;;;;;;;9.00;9.00;;;;;23.44;36.76;100584.05;110012;1259;22072;-36
2023/07/23 02:17:37;;;;;;;;;10.50;10.00;;;;;23.42;36.72;100583.36;110045;1267;19312;-36
2023/07/23 02:20:06;;;;;;;;;13.00;11.00;;;;;23.35;36.70;100579.67;109982;1254;19619;-36
2023/07/23 02:22:33;;;;;;;;;11.00;11.00;;;;;23.31;36.66;100575.55;110019;1253;20144;-36
2023/07/23 02:25:01;;;;;;;;;11.00;10.00;;;;;23.33;36.81;100573.58;109993;1262;20905;-36
2023/07/23 02:27:28;;;;;;;;;10.00;9.00;;;;;23.36;36.69;100570.53;109999;1267;18566;-36
2023/07/23 02:29:56;;;;;;;;;11.00;10.00;;;;;23.39;36.65;100572.62;109990;1268;22108;-35
2023/07/23 02:32:23;;;;;;;;;11.00;9.00;;;;;23.36;36.76;100566.04;110012;1255;20778;-36
2023/07/23 02:34:50;;;;;;;;;14.00;13.00;;;;;23.37;36.38;100563.58;110014;1267;18633;-36
2023/07/23 02:37:18;;;;;;;;;11.00;9.00;;;;;23.32;36.52;100559.15;110021;1261;19963;-36
2023/07/23 02:39:45;;;;;;;;;13.50;11.50;;;;;23.33;36.56;100560.55;110001;1253;21100;-36
2023/07/23 02:42:13;;;;;;;;;13.00;11.00;;;;;23.32;36.56;100555.38;109984;1254;22651;-36
2023/07/23 02:44:40;;;;;;;;;11.00;9.00;;;;;23.31;36.64;100551.40;110000;1254;20053;-36
2023/07/23 02:47:07;;;;;;;;;9.00;9.00;;;;;23.32;36.53;100546.85;110002;1267;19392;-35
2023/07/23 02:49:35;;;;;;;;;7.00;7.00;;;;;23.36;36.58;100544.67;109991;1254;20003;-36
2023/07/23 02:52:04;;;;;;;;;9.50;9.50;;;;;23.39;36.58;100544.85;109973;1254;20180;-35
2023/07/23 02:54:32;;;;;;;;;10.00;10.00;;;;;23.40;36.53;100544.63;109997;1254;20824;-36
2023/07/23 02:56:59;;;;;;;;;9.50;8.00;;;;;23.43;36.68;100543.98;109906;1253;19679;-34
2023/07/23 02:59:27;;;;;;;;;13.00;10.00;;;;;23.45;36.54;100544.89;109956;1268;18678;-35
2023/07/23 03:01:54;;;;;;;;;10.00;9.00;;;;;23.46;36.46;100548.48;109886;1253;20798;-35
2023/07/23 03:04:25;;;;;;;;;8.00;7.00;;;;;23.44;36.44;100551.52;109978;1267;19987;-35
2023/07/23 03:06:53;;;;;;;;;11.00;10.50;;;;;23.36;36.89;100549.80;109971;1263;20298;-37
2023/07/23 03:09:20;;;;;;;;;13.00;11.00;;;;;23.32;36.95;100547.83;109963;1253;23499;-36
2023/07/23 03:11:48;;;;;;;;;10.00;10.00;;;;;23.33;36.78;100549.20;109944;1254;20027;-36
2023/07/23 03:14:15;;;;;;;;;10.00;9.00;;;;;23.35;36.66;100552.02;109972;1253;20206;-35
2023/07/23 03:16:42;;;;;;;;;9.00;9.00;;;;;23.34;36.85;100550.16;109977;1253;20838;-35
2023/07/23 03:19:11;;;;;;;;;13.00;11.00;;;;;23.33;37.15;100544.27;109981;1262;20043;-36
2023/07/23 03:21:38;;;;;;;;;7.00;7.00;;;;;23.31;36.87;100542.82;109895;1255;20134;-37
2023/07/23 03:24:05;;;;;;;;;9.00;9.00;;;;;23.33;36.86;100543.95;109988;1255;20796;-36
2023/07/23 03:26:33;;;;;;;;;9.50;9.50;;;;;23.35;36.81;100541.35;109989;1260;19676;-35
2023/07/23 03:29:00;;;;;;;;;10.50;10.00;;;;;23.35;36.97;100541.41;109996;1253;23846;-36
2023/07/23 03:31:28;;;;;;;;;10.00;9.00;;;;;23.33;36.86;100536.89;109991;1253;20545;-35
2023/07/23 03:33:55;;;;;;;;;11.00;10.00;;;;;23.37;36.97;100536.02;110003;1268;18718;-35
2023/07/23 03:36:23;;;;;;;;;9.00;7.00;;;;;23.35;36.78;100535.44;109955;1254;20645;-36
2023/07/23 03:38:51;;;;;;;;;10.00;9.00;;;;;23.36;37.00;100536.90;109992;1254;21556;-35
2023/07/23 03:41:18;;;;;;;;;10.00;9.33;;;;;23.36;37.11;100537.84;109985;1253;23106;-36
2023/07/23 03:43:47;;;;;;;;;10.00;9.00;;;;;23.36;36.95;100538.77;109984;1267;18868;-34
2023/07/23 03:46:15;;;;;;;;;7.00;7.00;;;;;23.33;37.14;100535.46;109971;1254;20808;-36
2023/07/23 03:48:42;;;;;;;;;9.50;9.50;;;;;23.32;37.04;100532.86;109993;1263;20120;-36
2023/07/23 03:51:09;;;;;;;;;9.00;9.00;;;;;23.32;37.16;100536.13;109976;1267;18620;-35
2023/07/23 03:53:37;;;;;;;;;9.00;9.00;;;;;23.34;36.96;100532.39;110031;1254;20800;-35
2023/07/23 03:56:04;;;;;;;;;10.50;10.00;;;;;23.34;37.04;100525.73;109974;1253;19608;-35
2023/07/23 03:58:31;;;;;;;;;11.00;11.00;;;;;23.28;37.04;100523.73;110029;1251;22216;-34
2023/07/23 04:00:59;;;;;;;;;11.00;10.00;;;;;23.27;37.28;100527.02;110020;1254;20727;-34
2023/07/23 04:03:26;;;;;;;;;10.00;9.00;;;;;23.28;37.15;100524.21;110042;1253;22294;-34
2023/07/23 04:05:54;;;;;;;;;13.00;10.00;;;;;23.26;37.11;100523.04;110023;1252;18910;-34
2023/07/23 04:08:21;;;;;;;;;10.00;9.00;;;;;23.21;37.29;100522.44;109973;1267;19375;-34
2023/07/23 04:10:48;;;;;;;;;9.00;9.00;;;;;23.21;37.52;100524.25;110023;1253;20330;-35
2023/07/23 04:13:16;;;;;;;;;10.00;10.00;;;;;23.20;37.39;100521.47;110030;1268;22389;-34
2023/07/23 04:15:43;;;;;;;;;9.00;9.00;;;;;23.21;37.42;100520.09;110023;1268;19362;-34
2023/07/23 04:18:11;;;;;;;;;9.50;9.00;;;;;23.24;37.20;100522.73;110029;1267;18643;-36
2023/07/23 04:20:38;;;;;;;;;12.00;10.00;;;;;23.26;37.26;100524.47;109870;1253;21606;-35
2023/07/23 04:23:06;;;;;;;;;9.00;9.00;;;;;23.26;37.49;100524.13;109943;1268;19380;-36
2023/07/23 04:25:33;;;;;;;;;11.00;11.00;;;;;23.30;37.09;100521.84;110008;1254;22768;-35
2023/07/23 04:28:00;;;;;;;;;11.00;9.00;;;;;23.28;37.32;100519.73;110017;1253;21789;-35
2023/07/23 04:30:28;;;;;;;;;13.00;10.00;;;;;23.24;37.49;100521.59;110040;1251;19390;-35
2023/07/23 04:32:56;;;;;;;;;11.00;10.00;;;;;23.22;37.64;100517.13;109998;1252;22255;-35
2023/07/23 04:35:23;;;;;;;;;10.00;9.00;;;;;23.27;37.57;100517.73;109997;1253;20132;-35
2023/07/23 04:37:50;;;;;;;;;12.50;10.00;;;;;23.28;37.47;100518.64;109998;1254;20747;-35
2023/07/23 04:40:18;;;;;;;;;15.00;11.00;;;;;23.26;37.50;100518.01;109968;1268;22826;-35
2023/07/23 04:42:45;;;;;;;;;10.00;9.00;;;;;23.27;37.69;100519.09;109957;1254;20076;-35
2023/07/23 04:45:12;;;;;;;;;9.00;9.00;;;;;23.30;37.55;100517.30;110034;1255;20578;-35
2023/07/23 04:47:40;;;;;;;;;13.00;10.00;;;;;23.27;37.62;100511.11;109935;1259;20107;-34
2023/07/23 04:50:07;;;;;;;;;11.00;10.00;;;;;23.28;37.69;100512.20;109976;1268;18724;-36
2023/07/23 04:52:35;;;;;;;;;9.00;7.00;;;;;23.29;37.88;100509.45;109976;1267;22182;-36
2023/07/23 04:55:02;;;;;;;;;11.00;10.00;;;;;23.26;37.92;100508.77;109951;1252;18593;-36
2023/07/23 04:57:30;;;;;;;;;12.00;11.00;;;;;23.23;37.95;100507.60;109885;1260;19953;-35
2023/07/23 04:59:58;;;;;;;;;12.00;10.50;;;;;23.14;38.14;100507.23;109873;1267;22172;-35
2023/07/23 05:02:25;;;;;;;;;18.00;15.00;;;;;23.09;38.45;100508.44;109915;1256;20009;-35
2023/07/23 05:04:53;;;;;;;;;13.00;13.00;;;;;23.01;38.53;100505.03;109894;1254;20165;-35
2023/07/23 05:07:21;;;;;;;;;13.50;13.00;;;;;22.91;39.01;100507.33;109934;1261;20707;-36
2023/07/23 05:09:48;;;;;;;;;15.00;15.00;;;;;22.87;38.95;100503.06;109987;1254;20049;-36
2023/07/23 05:12:16;;;;;;;;;13.00;12.00;;;;;22.87;39.17;100502.52;109987;1254;20025;-36
2023/07/23 05:14:43;;;;;;;;;12.50;12.00;;;;;22.87;39.15;100501.31;109993;1267;19360;-35
2023/07/23 05:17:12;;;;;;;;;13.00;13.00;;;;;22.88;38.86;100508.41;109944;1267;23512;-36
2023/07/23 05:19:39;;;;;;;;;12.00;12.00;;;;;22.88;38.98;100503.55;109940;1252;19122;-37
2023/07/23 05:22:07;;;;;;;;;15.00;14.00;;;;;22.91;38.84;100496.08;109894;1267;20716;-35
2023/07/23 05:24:34;;;;;;;;;16.67;13.00;;;;;22.75;38.96;100499.73;109981;1254;20030;-36
2023/07/23 05:27:02;;;;;;;;;12.00;12.00;;;;;22.71;39.22;100491.41;109932;1253;20169;-36
2023/07/23 05:29:29;;;;;;;;;16.00;14.00;;;;;22.68;39.43;100494.34;109867;1254;20793;-37
2023/07/23 05:31:57;;;;;;;;;16.00;13.00;;;;;22.73;39.18;100491.88;109991;1254;22304;-36
2023/07/23 05:34:24;;;;;;;;;14.00;13.00;;;;;22.68;39.41;100490.35;109871;1253;18783;-36
2023/07/23 05:36:51;;;;;;;;;12.00;10.00;;;;;22.70;39.44;100486.94;109978;1254;20809;-36
2023/07/23 05:39:19;;;;;;;;;12.00;10.00;;;;;22.64;39.61;100487.55;109858;1254;20144;-36
2023/07/23 05:41:46;;;;;;;;;16.00;13.50;;;;;22.68;40.14;100488.98;109845;1253;22215;-36
2023/07/23 05:44:13;;;;;;;;;14.00;13.00;;;;;22.57;40.28;100485.77;109990;1254;22069;-36
2023/07/23 05:46:41;;;;;;;;;13.00;13.00;;;;;22.61;40.14;100486.60;110003;1267;18662;-36
2023/07/23 05:49:08;;;;;;;;;12.00;12.00;;;;;22.73;39.87;100479.81;110018;1253;20117;-36
2023/07/23 05:51:36;;;;;;;;;9.50;9.50;;;;;22.71;40.07;100475.13;110012;1268;23689;-36
2023/07/23 05:54:03;;;;;;;;;12.00;12.00;;;;;22.77;39.93;100472.30;110046;1267;18635;-36
2023/07/23 05:56:31;;;;;;;;;17.00;16.00;;;;;22.86;39.90;100470.79;109988;1254;20101;-36
2023/07/23 05:58:59;;;;;;;;;12.00;12.00;;;;;22.86;39.87;100469.26;110072;1253;20675;-36
2023/07/23 06:01:26;;;;;;;;;12.50;12.00;;;;;22.83;39.44;100468.09;110022;1254;22711;-36
2023/07/23 06:03:53;;;;;;;;;10.00;10.00;;;;;22.84;39.68;100470.48;109991;1253;20143;-36
2023/07/23 06:06:21;;;;;;;;;9.00;9.00;;;;;22.89;39.58;100470.54;110026;1253;21447;-35
2023/07/23 06:08:48;;;;;;;;;9.00;9.00;;;;;22.90;39.66;100470.25;109972;1267;22200;-36
2023/07/23 06:11:16;;;;;;;;;12.00;12.00;;;;;22.86;39.30;100470.13;109981;1254;22519;-35
2023/07/23 06:13:43;;;;;;;;;13.00;12.33;;;;;22.77;39.62;100471.36;109984;1253;21580;-35
2023/07/23 06:16:10;;;;;;;;;12.00;12.00;;;;;22.76;39.71;100465.75;109997;1253;19981;-36
2023/07/23 06:18:38;;;;;;;;;13.00;12.00;;;;;22.75;39.81;100463.45;109977;1268;21120;-36
2023/07/23 06:21:05;;;;;;;;;10.00;9.50;;;;;22.82;39.82;100463.78;109957;1253;22887;-34
2023/07/23 06:23:33;;;;;;;;;12.00;10.00;;;;;22.81;39.64;100459.64;109875;1251;18625;-35
2023/07/23 06:26:00;;;;;;;;;12.00;9.00;;;;;22.90;39.76;100453.21;109914;1252;23932;-34
2023/07/23 06:28:28;;;;;;;;;13.00;13.00;;;;;22.96;39.72;100444.35;109888;1267;19631;-35
2023/07/23 06:30:55;;;;;;;;;11.33;11.33;;;;;22.94;39.77;100443.27;109888;1254;20085;-35
2023/07/23 06:33:22;;;;;;;;;10.67;10.00;;;;;22.92;39.73;100435.87;109890;1267;18879;-36
2023/07/23 06:35:50;;;;;;;;;14.00;13.50;;;;;22.86;39.88;100428.46;109822;1254;22354;-35
2023/07/23 06:38:17;;;;;;;;;12.50;11.00;;;;;22.86;39.63;100426.77;109922;1267;20047;-34
2023/07/23 06:40:44;;;;;;;;;13.00;11.00;;;;;22.93;39.75;100424.06;109919;1268;18694;-35
2023/07/23 06:43:12;;;;;;;;;16.00;12.00;;;;;23.01;39.74;100425.44;109869;1253;20876;-35
2023/07/23 06:45:39;;;;;;;;;13.00;11.50;;;;;22.98;39.72;100421.98;109938;1254;22325;-34
2023/07/23 06:48:07;;;;;;;;;18.00;13.00;;;;;23.08;39.59;100413.27;109914;1254;20160;-35
2023/07/23 06:50:34;;;;;;;;;14.00;14.00;;;;;23.09;39.50;100409.70;109909;1254;20871;-35
2023/07/23 06:53:01;;;;;;;;;13.00;10.00;;;;;23.15;39.17;100406.98;110001;1254;19990;-36
2023/07/23 06:55:29;;;;;;;;;10.00;10.00;;;;;23.08;39.25;100408.02;109931;1253;22334;-34
2023/07/23 06:57:56;;;;;;;;;11.00;10.00;;;;;22.93;39.36;100403.03;109978;1252;22072;-34
2023/07/23 07:00:24;;;;;;;;;10.00;9.00;;;;;22.98;39.23;100398.32;109883;1267;18713;-36
2023/07/23 07:02:51;;;;;;;;;10.50;9.00;;;;;22.98;39.37;100396.58;109916;1262;20238;-36
2023/07/23 07:05:20;;;;;;;;;9.50;9.00;;;;;23.05;39.17;100400.41;109976;1259;20887;-36
2023/07/23 07:07:47;;;;;;;;;10.00;9.00;;;;;23.10;38.93;100396.84;109981;1267;19342;-35
2023/07/23 07:10:15;;;;;;;;;9.00;9.00;;;;;23.14;39.13;100389.96;109975;1267;23037;-35
2023/07/23 07:12:42;;;;;;;;;10.50;10.00;;;;;23.19;38.97;100387.54;109938;1259;19274;-36
2023/07/23 07:15:10;;;;;;;;;10.00;10.00;;;;;23.26;39.18;100384.32;109969;1253;19961;-35
2023/07/23 07:17:37;;;;;;;;;7.00;7.00;;;;;23.28;39.39;100380.20;109985;1267;18930;-36
2023/07/23 07:20:05;;;;;;;;;11.00;10.00;;;;;23.26;39.63;100376.06;109879;1267;19515;-35
2023/07/23 07:22:34;;;;;;;;;13.00;9.00;;;;;23.29;39.35;100375.59;110033;1252;21981;-35
2023/07/23 07:25:01;;;;;;;;;9.00;7.00;;;;;23.28;39.73;100374.45;110007;1253;18677;-35
2023/07/23 07:27:29;;;;;;;;;10.00;9.00;;;;;23.37;39.64;100371.42;109955;1267;19557;-35
2023/07/23 07:29:57;;;;;;;;;30.00;23.00;;;;;23.40;39.88;100365.09;109941;1267;18559;-35
2023/07/23 07:32:24;;;;;;;;;53.00;43.00;;;;;23.49;40.06;100363.58;109967;1267;21656;-35
2023/07/23 07:34:52;;;;;;;;;30.00;27.00;;;;;23.51;40.10;100376.18;109947;1259;22126;-36
2023/07/23 07:37:19;;;;;;;;;53.50;41.00;;;;;23.44;39.87;100406.96;109973;1267;20004;-37
2023/07/23 07:39:47;;;;;;;;;76.50;58.00;;;;;23.51;40.13;100438.13;109995;1253;20389;-36
2023/07/23 07:42:14;;;;;;;;;64.50;47.00;;;;;23.54;40.39;100438.48;109972;1262;20903;-37
2023/07/23 07:44:42;;;;;;;;;75.00;56.00;;;;;23.57;40.69;100450.48;109981;1267;18605;-36
2023/07/23 07:47:09;;;;;;;;;80.00;57.00;;;;;23.61;40.43;100448.90;109964;1254;20296;-36
2023/07/23 07:49:36;;;;;;;;;79.50;60.00;;;;;23.63;40.68;100451.23;109980;1253;22718;-35
2023/07/23 07:52:04;;;;;;;;;81.50;58.50;;;;;23.66;40.58;100448.48;109950;1267;18538;-35
2023/07/23 07:54:31;;;;;;;;;59.00;48.50;;;;;23.68;40.74;100447.15;109990;1254;20162;-36
2023/07/23 07:56:59;;;;;;;;;58.00;43.00;;;;;23.69;40.95;100446.91;109877;1262;20706;-36
2023/07/23 07:59:26;;;;;;;;;55.00;42.00;;;;;23.70;40.96;100439.50;109632;1268;18573;-35
2023/07/23 08:01:54;;;;;;;;;45.00;37.00;;;;;23.72;40.89;100439.70;109649;1260;20124;-36
2023/07/23 08:04:21;;;;;;;;;45.00;37.00;;;;;23.74;41.26;100442.02;109660;1269;22224;-36
2023/07/23 08:06:48;;;;;;;;;31.00;28.00;;;;;23.77;41.29;100443.56;109604;1253;18599;-35
2023/07/23 08:09:16;;;;;;;;;29.00;23.00;;;;;23.80;41.28;100440.11;109585;1254;20343;-35
2023/07/23 08:11:44;;;;;;;;;21.00;20.00;;;;;23.83;41.22;100443.52;109542;1253;20706;-35
2023/07/23 08:14:11;;;;;;;;;23.00;18.50;;;;;23.84;40.82;100441.59;109577;1263;18866;-36
2023/07/23 08:16:38;;;;;;;;;16.00;15.00;;;;;23.80;41.26;100441.88;109579;1253;18986;-35
2023/07/23 08:19:06;;;;;;;;;17.50;15.50;;;;;23.76;40.93;100440.52;109567;1268;19364;-36
2023/07/23 08:21:33;;;;;;;;;15.00;14.67;;;;;23.73;41.30;100435.42;109752;1267;24670;-35
2023/07/23 08:24:01;;;;;;;;;11.50;11.00;;;;;23.65;41.21;100430.46;109937;1267;18715;-35
2023/07/23 08:26:28;;;;;;;;;12.00;11.00;;;;;23.61;41.21;100429.31;109891;1267;20242;-36
2023/07/23 08:28:56;;;;;;;;;14.00;13.00;;;;;23.61;41.31;100428.28;109927;1267;20309;-35
2023/07/23 08:31:23;;;;;;;;;15.50;15.50;;;;;23.60;40.97;100425.02;109907;1261;19060;-35
2023/07/23 08:33:51;;;;;;;;;11.50;11.50;;;;;23.53;41.06;100416.67;109876;1267;19661;-35
2023/07/23 08:36:18;;;;;;;;;10.00;10.00;;;;;23.51;41.33;100413.75;109922;1267;18591;-35
2023/07/23 08:38:46;;;;;;;;;13.00;13.00;;;;;23.51;40.92;100408.21;109924;1267;18752;-35
2023/07/23 08:41:13;;;;;;;;;10.50;10.50;;;;;23.53;40.86;100406.83;109923;1263;19581;-35
2023/07/23 08:43:41;;;;;;;;;16.50;14.00;;;;;23.46;41.10;100400.69;109906;1261;18826;-35
2023/07/23 08:46:10;;;;;;;;;18.00;17.00;;;;;23.45;41.05;100405.19;109919;1267;18658;-35
2023/07/23 08:48:37;;;;;;;;;16.00;15.67;;;;;23.24;41.60;100398.46;109937;1267;19625;-35
2023/07/23 08:51:05;;;;;;;;;17.50;17.00;;;;;23.02;42.31;100393.79;109946;1267;18690;-35
2023/07/23 08:53:34;;;;;;;;;11.50;11.50;;;;;22.93;42.70;100393.90;109965;1259;22861;-35
2023/07/23 08:56:03;;;;;;;;;14.00;13.00;;;;;22.84;42.80;100389.70;109923;1267;19602;-35
2023/07/23 08:58:31;;;;;;;;;13.00;13.00;;;;;22.87;42.39;100384.91;109909;1267;18784;-34
2023/07/23 09:00:58;;;;;;;;;14.00;13.00;;;;;22.84;42.62;100390.09;109909;1253;20177;-35
2023/07/23 09:03:26;;;;;;;;;14.00;13.00;;;;;23.00;42.10;100387.10;109918;1253;19330;-34
2023/07/23 09:05:54;;;;;;;;;12.00;12.00;;;;;23.01;42.20;100386.70;109918;1267;18631;-36
2023/07/23 09:08:22;;;;;;;;;13.00;13.00;;;;;22.92;42.20;100379.98;109935;1262;18825;-36
2023/07/23 09:10:49;;;;;;;;;21.00;18.00;;;;;23.07;41.85;100377.17;109909;1267;19401;-34
2023/07/23 09:13:17;;;;;;;;;17.00;15.00;;;;;22.96;42.35;100378.95;109880;1252;18625;-34
2023/07/23 09:15:45;;;;;;;;;14.00;14.00;;;;;23.02;42.06;100374.45;109952;1267;18701;-35
2023/07/23 09:18:13;;;;;;;;;18.00;15.00;;;;;22.98;42.62;100372.96;109945;1260;19503;-35
2023/07/23 09:20:42;;;;;;;;;15.00;13.00;;;;;22.97;43.17;100371.40;109952;1253;18674;-34
2023/07/23 09:23:10;;;;;;;;;14.50;13.50;;;;;23.00;42.95;100375.24;109943;1267;19183;-35
2023/07/23 09:25:38;;;;;;;;;13.00;13.00;;;;;22.88;43.02;100373.58;109949;1253;19382;-35
2023/07/23 09:28:06;;;;;;;;;14.00;13.00;;;;;22.94;43.08;100368.66;109949;1267;18654;-35
2023/07/23 09:30:35;;;;;;;;;15.00;14.00;;;;;23.11;42.62;100369.08;109953;1267;19492;-35
2023/07/23 09:33:04;;;;;;;;;17.00;15.00;;;;;23.18;42.10;100353.89;109877;1262;19397;-35
2023/07/23 09:35:33;;;;;;;;;12.50;11.50;;;;;23.15;41.92;100357.88;109923;1267;18683;-35
2023/07/23 09:38:03;;;;;;;;;14.00;13.67;;;;;23.25;41.70;100357.61;109927;1267;20019;-35
2023/07/23 09:40:31;;;;;;;;;14.00;14.00;;;;;23.35;41.40;100350.45;109926;1267;19256;-34
2023/07/23 09:42:58;;;;;;;;;16.00;14.00;;;;;23.52;41.58;100351.85;109893;1268;18573;-35
2023/07/23 09:45:26;;;;;;;;;17.00;15.00;;;;;23.63;41.34;100342.39;109899;1267;19073;-34
2023/07/23 09:47:53;;;;;;;;;16.33;14.00;;;;;23.66;41.11;100337.32;109917;1254;21006;-35
2023/07/23 09:50:21;;;;;;;;;14.00;14.00;;;;;23.82;40.83;100335.48;109863;1261;18616;-35
2023/07/23 09:52:48;;;;;;;;;15.50;14.50;;;;;23.87;40.78;100330.81;109917;1267;20487;-34
2023/07/23 09:55:16;;;;;;;;;17.00;14.33;;;;;24.01;40.47;100332.85;109912;1268;20915;-34
2023/07/23 09:57:45;;;;;;;;;11.00;11.00;;;;;23.96;40.25;100325.83;109911;1268;18864;-35
2023/07/23 10:00:12;;;;;;;;;12.00;11.50;;;;;23.96;39.70;100334.69;109894;1267;18706;-35
2023/07/23 10:02:40;;;;;;;;;14.00;12.00;;;;;24.04;39.25;100326.94;109921;1254;20998;-35
2023/07/23 10:05:07;;;;;;;;;13.50;12.00;;;;;24.16;38.76;100329.34;109893;1268;19947;-35
2023/07/23 10:07:35;;;;;;;;;14.00;11.00;;;;;24.16;38.32;100329.12;109876;1268;19972;-34
2023/07/23 10:10:02;;;;;;;;;15.00;14.00;;;;;24.27;38.17;100329.76;109974;1267;19801;-35
2023/07/23 10:12:30;;;;;;;;;13.50;11.00;;;;;24.30;38.41;100328.11;109938;1267;20423;-34
2023/07/23 10:14:57;;;;;;;;;17.00;14.00;;;;;24.36;38.24;100322.35;109887;1262;20181;-35
2023/07/23 10:17:25;;;;;;;;;15.67;15.00;;;;;24.49;38.50;100318.58;109904;1268;22764;-34
2023/07/23 10:19:52;;;;;;;;;14.50;13.00;;;;;24.59;38.27;100321.11;109906;1267;18995;-34
2023/07/23 10:22:20;;;;;;;;;12.00;12.00;;;;;24.58;38.38;100320.16;109893;1267;19130;-36
2023/07/23 10:24:47;;;;;;;;;17.00;14.00;;;;;24.58;38.43;100312.42;109938;1267;19457;-35
2023/07/23 10:27:16;;;;;;;;;12.00;11.00;;;;;24.56;38.21;100314.48;109912;1267;18673;-35
2023/07/23 10:29:43;;;;;;;;;11.00;11.00;;;;;24.71;37.96;100321.45;109918;1267;18657;-35
2023/07/23 10:32:11;;;;;;;;;14.00;14.00;;;;;24.62;37.83;100314.79;109883;1252;20975;-36
2023/07/23 10:34:38;;;;;;;;;11.00;11.00;;;;;24.48;38.23;100302.17;109890;1253;21028;-35
2023/07/23 10:37:06;;;;;;;;;14.00;11.00;;;;;24.44;38.13;100302.81;109935;1268;21103;-35
2023/07/23 10:39:33;;;;;;;;;12.00;12.00;;;;;24.46;38.02;100300.36;109883;1267;19457;-36
2023/07/23 10:42:02;;;;;;;;;14.33;14.33;;;;;24.47;38.27;100304.39;109930;1252;18671;-36
2023/07/23 10:44:30;;;;;;;;;13.00;12.00;;;;;24.61;37.50;100306.62;109892;1267;22775;-35
2023/07/23 10:46:57;;;;;;;;;11.50;11.00;;;;;24.60;36.78;100299.95;109915;1253;22615;-34
2023/07/23 10:49:25;;;;;;;;;12.00;12.00;;;;;24.59;36.16;100301.45;109897;1252;19197;-35
2023/07/23 10:51:53;;;;;;;;;15.00;12.00;;;;;24.51;36.16;100300.63;109888;1255;20180;-34
2023/07/23 10:54:20;;;;;;;;;14.00;12.00;;;;;24.40;36.40;100299.00;109883;1253;20558;-35
2023/07/23 10:56:49;;;;;;;;;14.00;14.00;;;;;24.33;36.35;100298.54;109887;1252;22294;-34
2023/07/23 10:59:17;;;;;;;;;15.00;12.00;;;;;24.29;36.77;100298.36;109868;1252;20145;-35
2023/07/23 11:01:44;;;;;;;;;16.00;15.00;;;;;24.26;36.95;100298.56;109861;1253;20950;-35
2023/07/23 11:04:12;;;;;;;;;24.00;21.00;;;;;24.28;37.00;100293.61;109954;1267;20934;-34
2023/07/23 11:06:41;;;;;;;;;23.00;21.00;;;;;24.25;37.35;100290.41;109905;1267;20040;-34